createdAt,value
2016-04-14T00:00:51.939Z,1003.83
2016-04-14T00:01:52.003Z,1003.82
2016-04-14T00:02:52.053Z,1003.85
2016-04-14T00:03:52.102Z,1003.84
2016-04-14T00:04:52.152Z,1003.83
2016-04-14T00:05:52.202Z,1003.82
2016-04-14T00:06:52.252Z,1003.8
2016-04-14T00:07:52.301Z,1003.79
2016-04-14T00:08:52.364Z,1003.84
2016-04-14T00:09:52.414Z,1003.85
2016-04-14T00:10:52.463Z,1003.85
2016-04-14T00:11:52.513Z,1003.84
2016-04-14T00:12:52.563Z,1003.88
2016-04-14T00:13:52.612Z,1003.83
2016-04-14T00:14:52.677Z,1003.84
2016-04-14T00:15:52.727Z,1003.88
2016-04-14T00:16:52.776Z,1003.86
2016-04-14T00:17:52.826Z,1003.87
2016-04-14T00:18:52.876Z,1003.88
2016-04-14T00:19:52.926Z,1003.86
2016-04-14T00:20:52.974Z,1003.87
2016-04-14T00:21:53.024Z,1003.82
2016-04-14T00:22:53.074Z,1003.85
2016-04-14T00:23:53.139Z,1003.9
2016-04-14T00:24:53.189Z,1003.86
2016-04-14T00:25:53.237Z,1003.91
2016-04-14T00:26:53.304Z,1003.89
2016-04-14T00:27:53.337Z,1003.88
2016-04-14T00:28:53.386Z,1003.88
2016-04-14T00:29:53.437Z,1003.87
2016-04-14T00:30:53.486Z,1003.94
2016-04-14T00:31:53.550Z,1003.9
2016-04-14T00:32:53.601Z,1003.91
2016-04-14T00:33:53.650Z,1003.91
2016-04-14T00:34:53.700Z,1003.91
2016-04-14T00:35:53.769Z,1003.92
2016-04-14T00:36:53.805Z,1003.99
2016-04-14T00:37:53.855Z,1004.03
2016-04-14T00:38:53.921Z,1004.06
2016-04-14T00:39:53.970Z,1004.02
2016-04-14T00:40:54.004Z,1004.02
2016-04-14T00:41:54.054Z,1004.05
2016-04-14T00:42:54.118Z,1004
2016-04-14T00:43:54.168Z,1004.01
2016-04-14T00:44:54.218Z,1004.05
2016-04-14T00:45:54.268Z,1004.01
2016-04-14T00:46:54.318Z,1004.04
2016-04-14T00:47:54.367Z,1004.01
2016-04-14T00:48:54.417Z,1004.01
2016-04-14T00:49:54.466Z,1003.98
2016-04-14T00:50:54.531Z,1003.99
2016-04-14T00:51:54.580Z,1003.99
2016-04-14T00:52:54.631Z,1004.05
2016-04-14T00:53:54.680Z,1004.03
2016-04-14T00:54:54.729Z,1004.03
2016-04-14T00:55:54.778Z,1004.04
2016-04-14T00:56:54.828Z,1004.06
2016-04-14T00:57:54.894Z,1004.06
2016-04-14T00:58:54.943Z,1004.05
2016-04-14T00:59:54.992Z,1004.03
2016-04-14T01:00:55.042Z,1004.02
2016-04-14T01:01:55.091Z,1004.03
2016-04-14T01:02:55.141Z,1004.03
2016-04-14T01:03:55.191Z,1003.96
2016-04-14T01:04:55.240Z,1003.99
2016-04-14T01:05:55.291Z,1004.04
2016-04-14T01:06:55.355Z,1003.99
2016-04-14T01:07:55.405Z,1004.06
2016-04-14T01:08:55.454Z,1004.05
2016-04-14T01:09:55.504Z,1004.03
2016-04-14T01:10:55.554Z,1004.05
2016-04-14T01:11:55.603Z,1004.01
2016-04-14T01:12:55.652Z,1004.01
2016-04-14T01:13:55.718Z,1004.09
2016-04-14T01:14:55.767Z,1004.08
2016-04-14T01:15:55.817Z,1004.07
2016-04-14T01:16:55.867Z,1004.1
2016-04-14T01:17:55.915Z,1004.1
2016-04-14T01:18:55.959Z,1004.04
2016-04-14T01:19:56.025Z,1004.02
2016-04-14T01:20:56.075Z,1004.06
2016-04-14T01:21:56.124Z,1004.05
2016-04-14T01:22:56.174Z,1004.01
2016-04-14T01:23:56.223Z,1004.07
2016-04-14T01:24:56.272Z,1004.05
2016-04-14T01:25:56.322Z,1004.07
2016-04-14T01:26:56.388Z,1004.07
2016-04-14T01:27:56.437Z,1004.06
2016-04-14T01:28:56.502Z,1004.09
2016-04-14T01:29:56.536Z,1004.08
2016-04-14T01:30:56.585Z,1004.06
2016-04-14T01:31:56.652Z,1004.01
2016-04-14T01:32:56.701Z,1004.06
2016-04-14T01:33:56.735Z,1004.03
2016-04-14T01:34:56.799Z,1004.06
2016-04-14T01:35:56.849Z,1004.08
2016-04-14T01:36:56.899Z,1004.07
2016-04-14T01:37:56.948Z,1004.07
2016-04-14T01:38:56.998Z,1004.03
2016-04-14T01:39:57.048Z,1004.07
2016-04-14T01:40:57.097Z,1004.06
2016-04-14T01:41:57.162Z,1004.07
2016-04-14T01:42:57.212Z,1004.1
2016-04-14T01:43:57.262Z,1004.11
2016-04-14T01:44:57.311Z,1004.09
2016-04-14T01:45:57.361Z,1004.08
2016-04-14T01:46:57.409Z,1004.08
2016-04-14T01:47:57.459Z,1004.1
2016-04-14T01:48:57.509Z,1004.1
2016-04-14T01:49:57.575Z,1004.11
2016-04-14T01:50:57.624Z,1004.15
2016-04-14T01:51:57.673Z,1004.11
2016-04-14T01:52:57.723Z,1004.15
2016-04-14T01:53:57.772Z,1004.17
2016-04-14T01:54:57.822Z,1004.15
2016-04-14T01:55:57.871Z,1004.17
2016-04-14T01:56:57.922Z,1004.22
2016-04-14T01:57:57.986Z,1004.23
2016-04-14T01:58:58.036Z,1004.24
2016-04-14T01:59:58.086Z,1004.18
2016-04-14T02:00:58.135Z,1004.23
2016-04-14T02:01:58.185Z,1004.18
2016-04-14T02:02:58.235Z,1004.2
2016-04-14T02:03:58.284Z,1004.2
2016-04-14T02:04:58.333Z,1004.22
2016-04-14T02:05:58.398Z,1004.22
2016-04-14T02:06:58.448Z,1004.19
2016-04-14T02:07:58.498Z,1004.2
2016-04-14T02:08:58.548Z,1004.21
2016-04-14T02:09:58.596Z,1004.23
2016-04-14T02:10:58.646Z,1004.17
2016-04-14T02:11:58.695Z,1004.21
2016-04-14T02:12:58.761Z,1004.2
2016-04-14T02:13:58.811Z,1004.17
2016-04-14T02:14:58.860Z,1004.15
2016-04-14T02:15:58.910Z,1004.15
2016-04-14T02:16:58.960Z,1004.11
2016-04-14T02:17:59.009Z,1004.11
2016-04-14T02:18:59.058Z,1004.1
2016-04-14T02:19:59.124Z,1004.12
2016-04-14T02:20:59.173Z,1004.12
2016-04-14T02:21:59.223Z,1004.13
2016-04-14T02:22:59.273Z,1004.12
2016-04-14T02:23:59.322Z,1004.08
2016-04-14T02:24:59.372Z,1004.08
2016-04-14T02:25:59.421Z,1004.1
2016-04-14T02:26:59.471Z,1004.1
2016-04-14T02:27:59.519Z,1004.12
2016-04-14T02:28:59.586Z,1004.1
2016-04-14T02:29:59.635Z,1004.11
2016-04-14T02:30:59.684Z,1004.1
2016-04-14T02:31:59.735Z,1004.14
2016-04-14T02:32:59.783Z,1004.1
2016-04-14T02:33:59.833Z,1004.12
2016-04-14T02:34:59.883Z,1004.15
2016-04-14T02:35:59.948Z,1004.08
2016-04-14T02:36:59.998Z,1004.08
2016-04-14T02:38:00.047Z,1004.1
2016-04-14T02:39:00.096Z,1004.1
2016-04-14T02:40:00.146Z,1004.08
2016-04-14T02:41:00.196Z,1004.14
2016-04-14T02:42:00.245Z,1004.11
2016-04-14T02:43:00.295Z,1004.11
2016-04-14T02:44:00.360Z,1004.15
2016-04-14T02:45:00.409Z,1004.15
2016-04-14T02:46:00.459Z,1004.17
2016-04-14T02:47:00.509Z,1004.16
2016-04-14T02:48:00.558Z,1004.12
2016-04-14T02:49:00.608Z,1004.13
2016-04-14T02:50:00.658Z,1004.16
2016-04-14T02:51:00.722Z,1004.16
2016-04-14T02:52:00.773Z,1004.15
2016-04-14T02:53:00.822Z,1004.21
2016-04-14T02:54:00.872Z,1004.2
2016-04-14T02:55:00.921Z,1004.2
2016-04-14T02:56:00.970Z,1004.23
2016-04-14T02:57:01.020Z,1004.22
2016-04-14T02:58:01.085Z,1004.24
2016-04-14T02:59:01.135Z,1004.24
2016-04-14T03:00:01.185Z,1004.2
2016-04-14T03:01:01.234Z,1004.19
2016-04-14T03:02:01.283Z,1004.2
2016-04-14T03:03:01.333Z,1004.21
2016-04-14T03:04:01.382Z,1004.23
2016-04-14T03:05:01.449Z,1004.24
2016-04-14T03:06:01.482Z,1004.2
2016-04-14T03:07:01.546Z,1004.22
2016-04-14T03:08:01.597Z,1004.24
2016-04-14T03:09:01.646Z,1004.22
2016-04-14T03:10:01.696Z,1004.22
2016-04-14T03:11:01.745Z,1004.24
2016-04-14T03:12:01.795Z,1004.25
2016-04-14T03:13:01.844Z,1004.27
2016-04-14T03:14:01.926Z,1004.28
2016-04-14T03:15:01.959Z,1004.3
2016-04-14T03:16:02.008Z,1004.25
2016-04-14T03:17:02.059Z,1004.28
2016-04-14T03:18:02.108Z,1004.29
2016-04-14T03:19:02.157Z,1004.24
2016-04-14T03:20:02.207Z,1004.22
2016-04-14T03:21:02.272Z,1004.22
2016-04-14T03:22:02.322Z,1004.24
2016-04-14T03:23:02.372Z,1004.2
2016-04-14T03:24:02.420Z,1004.23
2016-04-14T03:25:02.470Z,1004.26
2016-04-14T03:26:02.520Z,1004.27
2016-04-14T03:27:02.569Z,1004.21
2016-04-14T03:28:02.636Z,1004.23
2016-04-14T03:29:02.684Z,1004.26
2016-04-14T03:30:02.734Z,1004.22
2016-04-14T03:31:02.783Z,1004.28
2016-04-14T03:32:02.833Z,1004.3
2016-04-14T03:33:02.883Z,1004.32
2016-04-14T03:34:02.932Z,1004.28
2016-04-14T03:35:02.997Z,1004.28
2016-04-14T03:36:03.031Z,1004.29
2016-04-14T03:37:03.080Z,1004.3
2016-04-14T03:38:03.146Z,1004.35
2016-04-14T03:39:03.196Z,1004.35
2016-04-14T03:40:03.245Z,1004.33
2016-04-14T03:41:03.295Z,1004.42
2016-04-14T03:42:03.344Z,1004.38
2016-04-14T03:43:03.393Z,1004.37
2016-04-14T03:44:03.459Z,1004.39
2016-04-14T03:45:03.509Z,1004.39
2016-04-14T03:46:03.558Z,1004.38
2016-04-14T03:47:03.608Z,1004.36
2016-04-14T03:48:03.657Z,1004.35
2016-04-14T03:49:03.706Z,1004.34
2016-04-14T03:50:03.757Z,1004.38
2016-04-14T03:51:03.806Z,1004.35
2016-04-14T03:52:03.871Z,1004.42
2016-04-14T03:53:03.920Z,1004.37
2016-04-14T03:54:03.970Z,1004.39
2016-04-14T03:55:04.020Z,1004.33
2016-04-14T03:56:04.070Z,1004.4
2016-04-14T03:57:04.119Z,1004.39
2016-04-14T03:58:04.168Z,1004.38
2016-04-14T03:59:04.218Z,1004.36
2016-04-14T04:00:04.283Z,1004.37
2016-04-14T04:01:04.333Z,1004.38
2016-04-14T04:02:04.382Z,1004.39
2016-04-14T04:03:04.432Z,1004.42
2016-04-14T04:04:04.482Z,1004.41
2016-04-14T04:05:04.530Z,1004.43
2016-04-14T04:06:04.580Z,1004.43
2016-04-14T04:07:04.630Z,1004.45
2016-04-14T04:08:04.695Z,1004.44
2016-04-14T04:09:04.746Z,1004.47
2016-04-14T04:10:04.794Z,1004.49
2016-04-14T04:11:04.843Z,1004.49
2016-04-14T04:12:04.894Z,1004.48
2016-04-14T04:13:04.943Z,1004.5
2016-04-14T04:14:04.993Z,1004.49
2016-04-14T04:15:05.058Z,1004.47
2016-04-14T04:16:05.107Z,1004.5
2016-04-14T04:17:05.157Z,1004.52
2016-04-14T04:18:05.207Z,1004.52
2016-04-14T04:19:05.272Z,1004.51
2016-04-14T04:20:05.306Z,1004.52
2016-04-14T04:21:05.356Z,1004.48
2016-04-14T04:22:05.421Z,1004.48
2016-04-14T04:23:05.470Z,1004.54
2016-04-14T04:24:05.520Z,1004.51
2016-04-14T04:25:05.569Z,1004.49
2016-04-14T04:26:05.650Z,1004.52
2016-04-14T04:27:05.669Z,1004.51
2016-04-14T04:28:05.718Z,1004.53
2016-04-14T04:29:05.767Z,1004.54
2016-04-14T04:30:05.832Z,1004.57
2016-04-14T04:31:05.883Z,1004.54
2016-04-14T04:32:05.932Z,1004.57
2016-04-14T04:33:05.981Z,1004.6
2016-04-14T04:34:06.031Z,1004.59
2016-04-14T04:35:06.080Z,1004.6
2016-04-14T04:36:06.130Z,1004.57
2016-04-14T04:37:06.196Z,1004.56
2016-04-14T04:38:06.244Z,1004.61
2016-04-14T04:39:06.294Z,1004.61
2016-04-14T04:40:06.343Z,1004.66
2016-04-14T04:41:06.393Z,1004.63
2016-04-14T04:42:06.443Z,1004.63
2016-04-14T04:43:06.493Z,1004.64
2016-04-14T04:44:06.557Z,1004.66
2016-04-14T04:45:06.607Z,1004.69
2016-04-14T04:46:06.657Z,1004.67
2016-04-14T04:47:06.706Z,1004.67
2016-04-14T04:48:06.756Z,1004.69
2016-04-14T04:49:06.806Z,1004.73
2016-04-14T04:50:06.855Z,1004.74
2016-04-14T04:51:06.904Z,1004.74
2016-04-14T04:52:06.954Z,1004.75
2016-04-14T04:53:07.020Z,1004.76
2016-04-14T04:54:07.069Z,1004.76
2016-04-14T04:55:07.119Z,1004.77
2016-04-14T04:56:07.168Z,1004.75
2016-04-14T04:57:07.217Z,1004.74
2016-04-14T04:58:07.283Z,1004.76
2016-04-14T04:59:07.316Z,1004.82
2016-04-14T05:00:07.382Z,1004.79
2016-04-14T05:01:07.432Z,1004.78
2016-04-14T05:02:07.481Z,1004.78
2016-04-14T05:03:07.530Z,1004.81
2016-04-14T05:04:07.581Z,1004.79
2016-04-14T05:05:07.630Z,1004.82
2016-04-14T05:06:07.680Z,1004.8
2016-04-14T05:07:07.744Z,1004.78
2016-04-14T05:08:07.794Z,1004.81
2016-04-14T05:09:07.843Z,1004.83
2016-04-14T05:10:07.894Z,1004.86
2016-04-14T05:11:07.974Z,1004.86
2016-04-14T05:12:08.008Z,1004.84
2016-04-14T05:13:08.057Z,1004.89
2016-04-14T05:14:08.166Z,1004.89
2016-04-14T05:15:08.260Z,1004.85
2016-04-14T05:16:08.354Z,1004.87
2016-04-14T05:17:08.449Z,1004.87
2016-04-14T05:18:08.533Z,1004.88
2016-04-14T05:19:08.599Z,1004.84
2016-04-14T05:20:08.696Z,1004.84
2016-04-14T05:21:08.730Z,1004.88
2016-04-14T05:22:08.812Z,1004.86
2016-04-14T05:23:08.875Z,1004.86
2016-04-14T05:24:08.929Z,1004.87
2016-04-14T05:25:08.984Z,1004.93
2016-04-14T05:26:09.055Z,1004.95
2016-04-14T05:27:09.142Z,1005
2016-04-14T05:28:09.150Z,1005.01
2016-04-14T05:29:09.217Z,1005.03
2016-04-14T05:30:09.268Z,1005.02
2016-04-14T05:31:09.321Z,1005.04
2016-04-14T05:32:09.373Z,1005.08
2016-04-14T05:33:09.424Z,1005.08
2016-04-14T05:34:09.474Z,1005.08
2016-04-14T05:35:09.525Z,1005.04
2016-04-14T05:36:09.576Z,1005.09
2016-04-14T05:37:09.625Z,1005.1
2016-04-14T05:38:09.691Z,1005.14
2016-04-14T05:39:09.741Z,1005.16
2016-04-14T05:40:09.791Z,1005.17
2016-04-14T05:41:09.886Z,1005.2
2016-04-14T05:42:09.889Z,1005.22
2016-04-14T05:43:09.938Z,1005.21
2016-04-14T05:44:09.988Z,1005.23
2016-04-14T05:45:10.054Z,1005.22
2016-04-14T05:46:10.104Z,1005.26
2016-04-14T05:47:10.153Z,1005.24
2016-04-14T05:48:10.202Z,1005.23
2016-04-14T05:49:10.252Z,1005.24
2016-04-14T05:50:10.302Z,1005.23
2016-04-14T05:51:10.367Z,1005.2
2016-04-14T05:52:10.416Z,1005.2
2016-04-14T05:53:10.466Z,1005.23
2016-04-14T05:54:10.515Z,1005.24
2016-04-14T05:55:10.565Z,1005.22
2016-04-14T05:56:10.614Z,1005.23
2016-04-14T05:57:10.664Z,1005.21
2016-04-14T05:58:10.714Z,1005.21
2016-04-14T05:59:10.779Z,1005.24
2016-04-14T06:00:10.829Z,1005.22
2016-04-14T06:01:10.878Z,1005.21
2016-04-14T06:02:10.928Z,1005.25
2016-04-14T06:03:10.978Z,1005.25
2016-04-14T06:04:11.027Z,1005.27
2016-04-14T06:05:11.076Z,1005.29
2016-04-14T06:06:11.125Z,1005.29
2016-04-14T06:07:11.191Z,1005.29
2016-04-14T06:08:11.240Z,1005.27
2016-04-14T06:09:11.290Z,1005.29
2016-04-14T06:10:11.339Z,1005.26
2016-04-14T06:11:11.404Z,1005.27
2016-04-14T06:12:11.438Z,1005.28
2016-04-14T06:13:11.488Z,1005.28
2016-04-14T06:14:11.537Z,1005.26
2016-04-14T06:15:11.587Z,1005.27
2016-04-14T06:16:11.652Z,1005.23
2016-04-14T06:17:11.702Z,1005.23
2016-04-14T06:18:11.751Z,1005.25
2016-04-14T06:19:11.802Z,1005.22
2016-04-14T06:20:11.851Z,1005.2
2016-04-14T06:21:11.901Z,1005.2
2016-04-14T06:22:11.965Z,1005.23
2016-04-14T06:23:12.015Z,1005.23
2016-04-14T06:24:12.065Z,1005.19
2016-04-14T06:25:12.115Z,1005.21
2016-04-14T06:26:12.180Z,1005.24
2016-04-14T06:27:12.214Z,1005.27
2016-04-14T06:28:12.263Z,1005.27
2016-04-14T06:29:12.313Z,1005.28
2016-04-14T06:30:12.362Z,1005.3
2016-04-14T06:31:12.428Z,1005.28
2016-04-14T06:32:12.461Z,1005.33
2016-04-14T06:33:12.542Z,1005.33
2016-04-14T06:34:12.575Z,1005.32
2016-04-14T06:35:12.625Z,1005.32
2016-04-14T06:36:12.675Z,1005.3
2016-04-14T06:37:12.724Z,1005.32
2016-04-14T06:38:12.774Z,1005.31
2016-04-14T06:39:12.824Z,1005.33
2016-04-14T06:40:12.874Z,1005.33
2016-04-14T06:41:13.017Z,1005.32
2016-04-14T06:42:12.972Z,1005.31
2016-04-14T06:43:13.022Z,1005.32
2016-04-14T06:44:13.071Z,1005.33
2016-04-14T06:45:13.121Z,1005.31
2016-04-14T06:46:13.171Z,1005.29
2016-04-14T06:47:13.236Z,1005.32
2016-04-14T06:48:13.285Z,1005.29
2016-04-14T06:49:13.335Z,1005.31
2016-04-14T06:50:13.384Z,1005.28
2016-04-14T06:51:13.434Z,1005.32
2016-04-14T06:52:13.484Z,1005.29
2016-04-14T06:53:13.534Z,1005.28
2016-04-14T06:54:13.583Z,1005.29
2016-04-14T06:55:13.632Z,1005.33
2016-04-14T06:56:13.682Z,1005.34
2016-04-14T06:57:13.732Z,1005.3
2016-04-14T06:58:13.797Z,1005.33
2016-04-14T06:59:13.847Z,1005.34
2016-04-14T07:00:13.896Z,1005.34
2016-04-14T07:01:13.946Z,1005.29
2016-04-14T07:02:13.996Z,1005.3
2016-04-14T07:03:14.061Z,1005.3
2016-04-14T07:04:14.096Z,1005.31
2016-04-14T07:05:14.145Z,1005.35
2016-04-14T07:06:14.195Z,1005.33
2016-04-14T07:07:14.255Z,1005.38
2016-04-14T07:08:14.298Z,1005.39
2016-04-14T07:09:14.348Z,1005.38
2016-04-14T07:10:14.397Z,1005.4
2016-04-14T07:11:14.456Z,1005.39
2016-04-14T07:12:14.519Z,1005.39
2016-04-14T07:13:14.552Z,1005.38
2016-04-14T07:14:14.610Z,1005.39
2016-04-14T07:15:14.659Z,1005.43
2016-04-14T07:16:14.714Z,1005.42
2016-04-14T07:17:14.757Z,1005.41
2016-04-14T07:18:14.819Z,1005.42
2016-04-14T07:19:14.869Z,1005.44
2016-04-14T07:20:14.919Z,1005.49
2016-04-14T07:21:14.968Z,1005.49
2016-04-14T07:22:15.018Z,1005.51
2016-04-14T07:23:15.067Z,1005.51
2016-04-14T07:24:15.117Z,1005.52
2016-04-14T07:25:15.166Z,1005.53
2016-04-14T07:26:15.215Z,1005.51
2016-04-14T07:27:15.281Z,1005.58
2016-04-14T07:28:15.330Z,1005.56
2016-04-14T07:29:15.380Z,1005.61
2016-04-14T07:30:15.429Z,1005.57
2016-04-14T07:31:15.479Z,1005.59
2016-04-14T07:32:15.528Z,1005.58
2016-04-14T07:33:15.578Z,1005.56
2016-04-14T07:34:15.628Z,1005.59
2016-04-14T07:35:15.677Z,1005.63
2016-04-14T07:36:15.742Z,1005.6
2016-04-14T07:37:15.792Z,1005.59
2016-04-14T07:38:15.842Z,1005.58
2016-04-14T07:39:16.079Z,1005.59
2016-04-14T07:40:15.942Z,1005.57
2016-04-14T07:41:15.991Z,1005.6
2016-04-14T07:42:16.041Z,1005.6
2016-04-14T07:43:16.089Z,1005.57
2016-04-14T07:44:16.155Z,1005.62
2016-04-14T07:45:16.205Z,1005.65
2016-04-14T07:46:16.254Z,1005.61
2016-04-14T07:47:16.319Z,1005.62
2016-04-14T07:48:16.352Z,1005.63
2016-04-14T07:49:16.418Z,1005.63
2016-04-14T07:50:16.452Z,1005.67
2016-04-14T07:51:16.501Z,1005.64
2016-04-14T07:52:16.568Z,1005.63
2016-04-14T07:53:16.616Z,1005.65
2016-04-14T07:54:16.666Z,1005.67
2016-04-14T07:55:16.716Z,1005.66
2016-04-14T07:56:16.765Z,1005.64
2016-04-14T07:57:16.815Z,1005.66
2016-04-14T07:58:16.864Z,1005.69
2016-04-14T07:59:16.914Z,1005.69
2016-04-14T08:00:16.978Z,1005.73
2016-04-14T08:01:17.028Z,1005.72
2016-04-14T08:02:17.078Z,1005.77
2016-04-14T08:03:17.128Z,1005.77
2016-04-14T08:04:17.178Z,1005.79
2016-04-14T08:05:17.242Z,1005.77
2016-04-14T08:06:17.292Z,1005.77
2016-04-14T08:07:17.342Z,1005.75
2016-04-14T08:08:17.393Z,1005.77
2016-04-14T08:09:17.443Z,1005.75
2016-04-14T08:10:17.481Z,1005.75
2016-04-14T08:11:17.531Z,1005.77
2016-04-14T08:12:17.580Z,1005.72
2016-04-14T08:13:17.645Z,1005.71
2016-04-14T08:14:17.695Z,1005.72
2016-04-14T08:15:17.744Z,1005.75
2016-04-14T08:16:17.794Z,1005.74
2016-04-14T08:17:17.844Z,1005.79
2016-04-14T08:18:17.893Z,1005.75
2016-04-14T08:19:17.942Z,1005.77
2016-04-14T08:20:18.008Z,1005.78
2016-04-14T08:21:18.057Z,1005.76
2016-04-14T08:22:18.107Z,1005.78
2016-04-14T08:23:19.000Z,1005.77
2016-04-14T08:24:18.205Z,1005.79
2016-04-14T08:25:18.255Z,1005.85
2016-04-14T08:26:18.304Z,1005.81
2016-04-14T08:27:18.370Z,1005.84
2016-04-14T08:28:18.419Z,1005.78
2016-04-14T08:29:18.485Z,1005.82
2016-04-14T08:30:18.519Z,1005.78
2016-04-14T08:31:18.568Z,1005.84
2016-04-14T08:32:18.618Z,1005.83
2016-04-14T08:33:18.668Z,1005.81
2016-04-14T08:34:18.732Z,1005.79
2016-04-14T08:35:18.782Z,1005.79
2016-04-14T08:36:18.831Z,1005.83
2016-04-14T08:37:18.889Z,1005.76
2016-04-14T08:38:18.939Z,1005.79
2016-04-14T08:39:18.989Z,1005.85
2016-04-14T08:40:19.038Z,1005.78
2016-04-14T08:41:19.087Z,1005.76
2016-04-14T08:42:19.137Z,1005.81
2016-04-14T08:43:19.203Z,1005.78
2016-04-14T08:44:19.252Z,1005.81
2016-04-14T08:45:19.301Z,1005.83
2016-04-14T08:46:19.350Z,1005.78
2016-04-14T08:47:19.400Z,1005.84
2016-04-14T08:48:19.450Z,1005.83
2016-04-14T08:49:19.499Z,1005.79
2016-04-14T08:50:19.549Z,1005.78
2016-04-14T08:51:19.613Z,1005.77
2016-04-14T08:52:19.663Z,1005.76
2016-04-14T08:53:19.713Z,1005.83
2016-04-14T08:54:19.763Z,1005.78
2016-04-14T08:55:19.813Z,1005.79
2016-04-14T08:56:19.862Z,1005.78
2016-04-14T08:57:19.927Z,1005.79
2016-04-14T08:58:19.976Z,1005.78
2016-04-14T08:59:20.026Z,1005.78
2016-04-14T09:00:20.076Z,1005.83
2016-04-14T09:01:20.126Z,1005.8
2016-04-14T09:02:20.176Z,1005.83
2016-04-14T09:03:20.241Z,1005.79
2016-04-14T09:04:20.290Z,1005.84
2016-04-14T09:05:20.340Z,1005.84
2016-04-14T09:06:20.390Z,1005.87
2016-04-14T09:07:20.439Z,1005.87
2016-04-14T09:08:20.488Z,1005.83
2016-04-14T09:09:20.600Z,1005.86
2016-04-14T09:10:20.603Z,1005.89
2016-04-14T09:11:20.652Z,1005.86
2016-04-14T09:12:20.702Z,1005.87
2016-04-14T09:13:20.751Z,1005.92
2016-04-14T09:14:20.800Z,1005.94
2016-04-14T09:15:20.851Z,1005.97
2016-04-14T09:16:20.900Z,1005.9
2016-04-14T09:17:20.966Z,1005.89
2016-04-14T09:18:21.015Z,1005.84
2016-04-14T09:19:21.064Z,1005.88
2016-04-14T09:20:21.114Z,1005.86
2016-04-14T09:21:21.163Z,1005.91
2016-04-14T09:22:21.229Z,1005.9
2016-04-14T09:23:21.277Z,1005.88
2016-04-14T09:24:21.327Z,1005.87
2016-04-14T09:25:21.377Z,1005.91
2016-04-14T09:26:21.427Z,1005.85
2016-04-14T09:27:21.476Z,1005.86
2016-04-14T09:28:21.527Z,1005.9
2016-04-14T09:29:21.591Z,1005.86
2016-04-14T09:30:21.641Z,1005.87
2016-04-14T09:31:21.690Z,1005.84
2016-04-14T09:32:21.740Z,1005.88
2016-04-14T09:33:21.790Z,1005.79
2016-04-14T09:34:21.854Z,1005.81
2016-04-14T09:35:21.904Z,1005.86
2016-04-14T09:36:21.954Z,1005.82
2016-04-14T09:37:22.004Z,1005.85
2016-04-14T09:38:22.054Z,1005.79
2016-04-14T09:39:22.103Z,1005.84
2016-04-14T09:40:22.153Z,1005.86
2016-04-14T09:41:22.217Z,1005.86
2016-04-14T09:42:22.267Z,1005.87
2016-04-14T09:43:22.316Z,1005.88
2016-04-14T09:44:22.366Z,1005.91
2016-04-14T09:45:22.416Z,1005.85
2016-04-14T09:46:22.464Z,1005.85
2016-04-14T09:47:22.530Z,1005.91
2016-04-14T09:48:22.580Z,1005.89
2016-04-14T09:49:22.630Z,1005.96
2016-04-14T09:50:22.679Z,1005.94
2016-04-14T09:51:22.728Z,1005.97
2016-04-14T09:52:22.778Z,1005.95
2016-04-14T09:53:22.843Z,1005.88
2016-04-14T09:54:22.893Z,1005.92
2016-04-14T09:55:22.942Z,1005.94
2016-04-14T09:56:22.991Z,1005.91
2016-04-14T09:57:23.041Z,1005.9
2016-04-14T09:58:23.091Z,1005.91
2016-04-14T09:59:23.156Z,1006
2016-04-14T10:00:23.206Z,1005.9
2016-04-14T10:01:23.255Z,1005.9
2016-04-14T10:02:23.305Z,1005.85
2016-04-14T10:03:23.354Z,1005.88
2016-04-14T10:04:23.404Z,1005.88
2016-04-14T10:05:23.454Z,1005.97
2016-04-14T10:06:23.518Z,1005.96
2016-04-14T10:07:23.569Z,1005.94
2016-04-14T10:08:23.618Z,1005.98
2016-04-14T10:09:23.668Z,1005.96
2016-04-14T10:10:23.718Z,1006
2016-04-14T10:11:23.767Z,1005.99
2016-04-14T10:12:23.832Z,1005.92
2016-04-14T10:13:23.881Z,1005.92
2016-04-14T10:14:23.931Z,1006.02
2016-04-14T10:15:23.980Z,1005.96
2016-04-14T10:16:24.030Z,1005.95
2016-04-14T10:17:24.080Z,1005.99
2016-04-14T10:18:24.130Z,1006.04
2016-04-14T10:19:24.195Z,1006.08
2016-04-14T10:20:24.244Z,1006.03
2016-04-14T10:21:24.294Z,1006.06
2016-04-14T10:22:24.343Z,1006.06
2016-04-14T10:23:24.393Z,1005.94
2016-04-14T10:24:24.458Z,1006
2016-04-14T10:25:24.507Z,1005.98
2016-04-14T10:26:24.557Z,1005.99
2016-04-14T10:27:24.606Z,1005.98
2016-04-14T10:28:24.656Z,1005.95
2016-04-14T10:29:24.705Z,1006.01
2016-04-14T10:30:24.771Z,1006
2016-04-14T10:31:24.821Z,1006.01
2016-04-14T10:32:24.870Z,1006
2016-04-14T10:33:24.920Z,1005.98
2016-04-14T10:34:24.969Z,1006.06
2016-04-14T10:35:25.018Z,1006.04
2016-04-14T10:36:25.085Z,1005.94
2016-04-14T10:37:25.134Z,1005.97
2016-04-14T10:38:25.184Z,1006.03
2016-04-14T10:39:25.233Z,1005.93
2016-04-14T10:40:25.798Z,1005.96
2016-04-14T10:41:25.332Z,1006.01
2016-04-14T10:42:25.381Z,1005.99
2016-04-14T10:43:25.447Z,1006.02
2016-04-14T10:44:25.495Z,1005.98
2016-04-14T10:45:25.546Z,1006.01
2016-04-14T10:46:25.595Z,1005.99
2016-04-14T10:47:25.645Z,1005.97
2016-04-14T10:48:25.695Z,1005.97
2016-04-14T10:49:25.759Z,1005.97
2016-04-14T10:50:25.809Z,1005.95
2016-04-14T10:51:25.858Z,1005.96
2016-04-14T10:52:25.908Z,1006
2016-04-14T10:53:25.957Z,1005.93
2016-04-14T10:54:26.007Z,1005.99
2016-04-14T10:55:26.072Z,1006.03
2016-04-14T10:56:26.122Z,1005.92
2016-04-14T10:57:26.172Z,1005.93
2016-04-14T10:58:26.221Z,1005.92
2016-04-14T10:59:26.271Z,1005.97
2016-04-14T11:00:26.320Z,1005.94
2016-04-14T11:01:26.385Z,1005.89
2016-04-14T11:02:26.435Z,1005.96
2016-04-14T11:03:26.485Z,1005.94
2016-04-14T11:04:26.535Z,1005.96
2016-04-14T11:05:26.600Z,1006.03
2016-04-14T11:06:26.634Z,1005.94
2016-04-14T11:07:26.699Z,1005.97
2016-04-14T11:08:26.748Z,1005.94
2016-04-14T11:09:26.798Z,1005.94
2016-04-14T11:10:26.848Z,1005.98
2016-04-14T11:11:26.897Z,1005.95
2016-04-14T11:12:26.962Z,1005.96
2016-04-14T11:13:27.011Z,1005.92
2016-04-14T11:14:27.062Z,1005.95
2016-04-14T11:15:27.111Z,1005.93
2016-04-14T11:16:27.161Z,1005.95
2016-04-14T11:17:27.209Z,1005.89
2016-04-14T11:18:27.275Z,1005.95
2016-04-14T11:19:27.325Z,1005.89
2016-04-14T11:20:27.374Z,1006.01
2016-04-14T11:21:27.424Z,1005.95
2016-04-14T11:22:27.472Z,1005.94
2016-04-14T11:23:27.522Z,1005.94
2016-04-14T11:24:27.572Z,1005.87
2016-04-14T11:25:27.638Z,1005.88
2016-04-14T11:26:27.688Z,1005.84
2016-04-14T11:27:27.752Z,1005.9
2016-04-14T11:28:27.786Z,1005.91
2016-04-14T11:29:27.851Z,1005.96
2016-04-14T11:30:27.901Z,1005.92
2016-04-14T11:31:27.951Z,1005.86
2016-04-14T11:32:28.000Z,1005.86
2016-04-14T11:33:28.050Z,1005.87
2016-04-14T11:34:28.098Z,1005.84
2016-04-14T11:35:28.148Z,1005.85
2016-04-14T11:36:28.214Z,1005.88
2016-04-14T11:37:28.262Z,1005.84
2016-04-14T11:38:28.312Z,1005.89
2016-04-14T11:39:28.361Z,1005.87
2016-04-14T11:40:28.411Z,1005.85
2016-04-14T11:41:28.461Z,1005.94
2016-04-14T11:42:28.636Z,1005.92
2016-04-14T11:43:28.576Z,1005.88
2016-04-14T11:44:28.625Z,1005.86
2016-04-14T11:45:28.675Z,1005.81
2016-04-14T11:46:28.724Z,1005.85
2016-04-14T11:47:28.774Z,1005.85
2016-04-14T11:48:28.839Z,1005.82
2016-04-14T11:49:28.888Z,1005.83
2016-04-14T11:50:28.943Z,1005.82
2016-04-14T11:51:28.993Z,1005.79
2016-04-14T11:52:29.527Z,1005.78
2016-04-14T11:53:29.092Z,1005.8
2016-04-14T11:54:29.141Z,1005.8
2016-04-14T11:55:29.207Z,1005.78
2016-04-14T11:56:29.240Z,1005.77
2016-04-14T11:57:29.321Z,1005.81
2016-04-14T11:58:29.355Z,1005.78
2016-04-14T11:59:29.404Z,1005.8
2016-04-14T12:00:29.454Z,1005.78
2016-04-14T12:01:29.504Z,1005.74
2016-04-14T12:02:29.554Z,1005.76
2016-04-14T12:03:29.619Z,1005.77
2016-04-14T12:04:29.668Z,1005.8
2016-04-14T12:05:29.717Z,1005.77
2016-04-14T12:06:29.767Z,1005.73
2016-04-14T12:07:29.817Z,1005.74
2016-04-14T12:08:29.866Z,1005.76
2016-04-14T12:09:29.931Z,1005.69